createdAt,value
2019-05-20T00:02:06.302Z,17.40
2019-05-20T00:04:38.091Z,17.40
2019-05-20T00:07:09.908Z,17.30
2019-05-20T00:09:41.581Z,17.30
2019-05-20T00:12:13.308Z,17.30
2019-05-20T00:14:45.075Z,17.30
2019-05-20T00:17:16.919Z,17.30
2019-05-20T00:19:50.743Z,17.20
2019-05-20T00:22:22.126Z,17.20
2019-05-20T00:24:53.879Z,17.20
2019-05-20T00:27:25.593Z,17.20
2019-05-20T00:29:57.194Z,17.20
2019-05-20T00:32:40.678Z,17.20
2019-05-20T00:35:02.514Z,17.20
2019-05-20T00:37:34.357Z,17.10
2019-05-20T00:40:06.683Z,17.10
2019-05-20T00:42:38.324Z,17.10
2019-05-20T00:45:09.963Z,17.10
2019-05-20T00:47:41.695Z,17.10
2019-05-20T00:50:13.647Z,17.00
2019-05-20T00:52:45.318Z,17.00
2019-05-20T00:55:25.774Z,17.00
2019-05-20T00:57:57.382Z,16.90
2019-05-20T01:00:29.576Z,16.90
2019-05-20T01:03:01.332Z,16.90
2019-05-20T01:05:33.018Z,16.80
2019-05-20T01:08:04.703Z,16.80
2019-05-20T01:10:36.463Z,16.80
2019-05-20T01:13:08.149Z,16.80
2019-05-20T01:15:40.077Z,16.80
2019-05-20T01:18:11.941Z,16.80
2019-05-20T01:20:43.789Z,16.80
2019-05-20T01:23:15.527Z,16.70
2019-05-20T01:25:47.290Z,16.70
2019-05-20T01:28:19.202Z,16.70
2019-05-20T01:30:50.872Z,16.70
2019-05-20T01:33:22.582Z,16.70
2019-05-20T01:35:54.410Z,16.60
2019-05-20T01:38:26.593Z,16.60
2019-05-20T01:40:58.382Z,16.60
2019-05-20T01:43:30.220Z,16.50
2019-05-20T01:46:01.875Z,16.50
2019-05-20T01:48:33.654Z,16.50
2019-05-20T01:51:05.389Z,16.50
2019-05-20T01:53:37.032Z,16.40
2019-05-20T01:56:08.865Z,16.40
2019-05-20T01:58:40.587Z,16.40
2019-05-20T02:01:12.761Z,16.40
2019-05-20T02:03:44.511Z,16.40
2019-05-20T02:06:16.271Z,16.40
2019-05-20T02:08:47.929Z,16.40
2019-05-20T02:11:19.623Z,16.30
2019-05-20T02:13:59.302Z,16.30
2019-05-20T02:16:31.128Z,16.30
2019-05-20T02:19:02.885Z,16.30
2019-05-20T02:21:34.885Z,16.30
2019-05-20T02:24:06.676Z,16.30
2019-05-20T02:26:38.397Z,16.20
2019-05-20T02:29:10.059Z,16.20
2019-05-20T02:31:41.706Z,16.20
2019-05-20T02:34:13.570Z,16.20
2019-05-20T02:36:45.565Z,16.20
2019-05-20T02:39:17.433Z,16.20
2019-05-20T02:41:49.256Z,16.20
2019-05-20T02:44:21.013Z,16.20
2019-05-20T02:46:52.738Z,16.20
2019-05-20T02:49:24.608Z,16.20
2019-05-20T02:51:56.326Z,16.20
2019-05-20T02:54:30.068Z,16.20
2019-05-20T02:57:01.901Z,16.20
2019-05-20T02:59:33.692Z,16.20
2019-05-20T03:02:05.146Z,16.20
2019-05-20T03:04:36.971Z,16.20
2019-05-20T03:07:09.171Z,16.20
2019-05-20T03:09:40.987Z,16.30
2019-05-20T03:12:11.176Z,16.30
2019-05-20T03:14:42.969Z,16.30
2019-05-20T03:17:14.774Z,16.30
2019-05-20T03:19:46.663Z,16.40
2019-05-20T03:22:18.609Z,16.40
2019-05-20T03:24:50.588Z,16.40
2019-05-20T03:27:22.517Z,16.40
2019-05-20T03:29:54.345Z,16.50
2019-05-20T03:32:26.081Z,16.50
2019-05-20T03:35:00.699Z,16.60
2019-05-20T03:37:31.715Z,16.60
2019-05-20T03:40:04.096Z,16.70
2019-05-20T03:42:35.657Z,16.70
2019-05-20T03:45:07.696Z,16.80
2019-05-20T03:47:39.563Z,16.80
2019-05-20T03:50:11.386Z,16.90
2019-05-20T03:52:43.119Z,16.90
2019-05-20T03:55:43.229Z,17.00
2019-05-20T03:58:15.111Z,17.00
2019-05-20T04:00:47.823Z,17.00
2019-05-20T04:03:19.761Z,17.10
2019-05-20T04:05:51.688Z,17.20
2019-05-20T04:08:23.485Z,17.30
2019-05-20T04:10:55.140Z,17.30
2019-05-20T04:13:26.994Z,17.40
2019-05-20T04:15:58.911Z,17.40
2019-05-20T04:18:30.877Z,17.50
2019-05-20T04:21:02.532Z,17.60
2019-05-20T04:23:34.554Z,17.60
2019-05-20T04:26:06.713Z,17.70
2019-05-20T04:28:38.488Z,17.80
2019-05-20T04:31:10.342Z,17.90
2019-05-20T04:33:42.353Z,18.00
2019-05-20T04:36:14.244Z,18.10
2019-05-20T04:38:46.090Z,18.10
2019-05-20T04:41:18.445Z,18.20
2019-05-20T04:43:50.555Z,18.20
2019-05-20T04:46:22.574Z,18.30
2019-05-20T04:48:54.168Z,18.50
2019-05-20T04:51:26.312Z,18.60
2019-05-20T04:53:58.283Z,18.70
2019-05-20T04:56:30.257Z,18.80
2019-05-20T04:59:02.048Z,18.80
2019-05-20T05:01:34.317Z,18.90
2019-05-20T05:04:06.381Z,19.00
2019-05-20T05:06:38.265Z,19.10
2019-05-20T05:09:09.985Z,19.20
2019-05-20T05:11:42.010Z,19.20
2019-05-20T05:14:13.962Z,19.20
2019-05-20T05:16:45.957Z,19.20
2019-05-20T05:19:17.868Z,19.30
2019-05-20T05:21:50.083Z,19.40
2019-05-20T05:24:22.220Z,19.50
2019-05-20T05:26:54.266Z,19.60
2019-05-20T05:29:26.366Z,19.70
2019-05-20T05:31:58.431Z,19.80
2019-05-20T05:34:30.542Z,19.90
2019-05-20T05:37:02.357Z,20.00
2019-05-20T05:39:34.307Z,20.20
2019-05-20T05:42:06.731Z,20.30
2019-05-20T05:44:38.821Z,20.60
2019-05-20T05:47:10.642Z,21.20
2019-05-20T05:49:42.426Z,22.30
2019-05-20T05:52:14.356Z,23.20
2019-05-20T05:54:46.670Z,24.10
2019-05-20T05:57:18.774Z,24.80
2019-05-20T05:59:54.178Z,25.40
2019-05-20T06:02:26.143Z,25.60
2019-05-20T06:04:58.459Z,25.40
2019-05-20T06:07:31.641Z,25.40
2019-05-20T06:10:03.834Z,25.70
2019-05-20T06:12:35.949Z,25.90
2019-05-20T06:15:08.580Z,26.00
2019-05-20T06:17:41.007Z,25.90
2019-05-20T06:20:13.797Z,25.60
2019-05-20T06:22:45.868Z,25.40
2019-05-20T06:25:18.146Z,25.50
2019-05-20T06:27:50.002Z,25.40
2019-05-20T06:30:23.759Z,25.30
2019-05-20T06:32:56.850Z,25.40
2019-05-20T06:35:29.060Z,25.70
2019-05-20T06:38:02.945Z,26.00
2019-05-20T06:40:35.004Z,26.00
2019-05-20T06:43:07.061Z,26.00
2019-05-20T06:45:39.489Z,26.30
2019-05-20T06:48:11.900Z,26.80
2019-05-20T06:50:43.978Z,27.60
2019-05-20T06:53:16.269Z,28.20
2019-05-20T06:55:48.681Z,28.60
2019-05-20T06:58:20.653Z,29.20
2019-05-20T07:00:52.824Z,29.70
2019-05-20T07:03:25.028Z,29.80
2019-05-20T07:05:57.179Z,29.40
2019-05-20T07:08:29.660Z,28.40
2019-05-20T07:11:01.819Z,27.90
2019-05-20T07:13:33.907Z,27.50
2019-05-20T07:16:06.575Z,27.50
2019-05-20T07:18:38.640Z,27.30
2019-05-20T07:21:10.765Z,27.40
2019-05-20T07:23:43.398Z,27.60
2019-05-20T07:26:15.759Z,27.30
2019-05-20T07:28:48.089Z,26.70
2019-05-20T07:31:20.191Z,26.00
2019-05-20T07:33:52.223Z,25.40
2019-05-20T07:36:24.299Z,25.00
2019-05-20T07:38:56.382Z,24.70
2019-05-20T07:41:29.268Z,24.50
2019-05-20T07:44:01.297Z,25.40
2019-05-20T07:46:33.647Z,26.20
2019-05-20T07:49:07.713Z,26.20
2019-05-20T07:51:40.872Z,25.70
2019-05-20T07:54:13.890Z,25.70
2019-05-20T07:56:47.986Z,26.20
2019-05-20T07:59:23.369Z,26.50
2019-05-20T08:01:55.558Z,27.30
2019-05-20T08:04:27.639Z,28.60
2019-05-20T08:06:59.912Z,30.10
2019-05-20T08:09:32.485Z,31.50
2019-05-20T08:12:04.617Z,32.30
2019-05-20T08:14:37.887Z,32.30
2019-05-20T08:17:10.239Z,32.20
2019-05-20T08:19:42.333Z,32.50
2019-05-20T08:22:14.485Z,32.70
2019-05-20T08:24:46.730Z,32.60
2019-05-20T08:27:18.759Z,32.80
2019-05-20T08:29:51.323Z,33.10
2019-05-20T08:32:23.349Z,33.00
2019-05-20T08:34:55.606Z,32.80
2019-05-20T08:37:43.703Z,32.30
2019-05-20T08:40:01.971Z,32.00
2019-05-20T08:42:34.328Z,31.80
2019-05-20T08:45:06.698Z,31.70
2019-05-20T08:47:38.779Z,31.70
2019-05-20T08:50:15.894Z,31.70
2019-05-20T08:52:45.215Z,31.50
2019-05-20T08:55:17.258Z,30.80
2019-05-20T08:57:49.489Z,30.90
2019-05-20T09:00:24.187Z,30.90
2019-05-20T09:02:56.666Z,30.80
2019-05-20T09:05:29.463Z,31.10
2019-05-20T09:08:03.593Z,31.20
2019-05-20T09:10:35.138Z,31.80
2019-05-20T09:13:07.973Z,32.30
2019-05-20T09:15:40.140Z,32.50
2019-05-20T09:18:12.094Z,32.50
2019-05-20T09:20:44.021Z,32.30
2019-05-20T09:23:16.456Z,32.70
2019-05-20T09:25:48.270Z,33.00
2019-05-20T09:28:20.496Z,33.10
2019-05-20T09:30:53.015Z,32.70
2019-05-20T09:33:25.803Z,32.00
2019-05-20T09:35:57.895Z,31.30
2019-05-20T09:38:30.405Z,31.10
2019-05-20T09:41:02.381Z,31.20
2019-05-20T09:43:34.363Z,30.80
2019-05-20T09:46:08.384Z,30.80
2019-05-20T09:48:40.656Z,30.90
2019-05-20T09:51:13.001Z,30.60
2019-05-20T09:53:45.360Z,30.10
2019-05-20T09:56:17.844Z,29.60
2019-05-20T09:58:49.881Z,29.00
2019-05-20T10:01:21.942Z,28.30
2019-05-20T10:03:56.203Z,27.70
2019-05-20T10:06:28.399Z,27.40
2019-05-20T10:09:01.025Z,27.30
2019-05-20T10:11:33.128Z,27.10
2019-05-20T10:14:05.427Z,27.40
2019-05-20T10:16:38.215Z,27.70
2019-05-20T10:19:10.617Z,27.80
2019-05-20T10:21:44.167Z,27.50
2019-05-20T10:24:16.478Z,27.30
2019-05-20T10:26:48.190Z,27.10
2019-05-20T10:29:20.256Z,26.90
2019-05-20T10:31:52.260Z,26.80
2019-05-20T10:34:24.473Z,26.80
2019-05-20T10:36:56.545Z,26.80
2019-05-20T10:39:28.543Z,26.70
2019-05-20T10:42:00.595Z,26.60
2019-05-20T10:44:32.885Z,26.50
2019-05-20T10:47:04.841Z,26.50
2019-05-20T10:49:37.062Z,26.70
2019-05-20T10:52:09.523Z,26.90
2019-05-20T10:54:44.323Z,26.90
2019-05-20T10:57:16.449Z,26.80
2019-05-20T10:59:48.637Z,26.60
2019-05-20T11:02:20.524Z,26.60
2019-05-20T11:04:52.951Z,26.70
2019-05-20T11:07:24.869Z,26.80
2019-05-20T11:09:56.875Z,26.90
2019-05-20T11:12:29.256Z,26.80
2019-05-20T11:15:03.178Z,26.80
2019-05-20T11:17:35.695Z,26.70
2019-05-20T11:20:08.899Z,26.70
2019-05-20T11:22:41.127Z,26.70
2019-05-20T11:25:13.144Z,26.70
2019-05-20T11:27:46.058Z,26.70
2019-05-20T11:30:19.011Z,26.70
2019-05-20T11:32:51.854Z,26.70
2019-05-20T11:35:23.943Z,26.60
2019-05-20T11:37:55.967Z,26.50
2019-05-20T11:40:28.056Z,26.20
2019-05-20T11:43:00.698Z,26.00
2019-05-20T11:45:34.172Z,25.70
2019-05-20T11:48:06.380Z,25.40
2019-05-20T11:50:38.744Z,25.10
2019-05-20T11:53:11.247Z,24.80
2019-05-20T11:55:43.741Z,24.50
2019-05-20T11:58:16.679Z,24.30
2019-05-20T12:00:49.350Z,24.20
2019-05-20T12:03:22.486Z,24.10
2019-05-20T12:05:54.906Z,24.00
2019-05-20T12:08:27.132Z,24.00
2019-05-20T12:10:59.093Z,23.90
2019-05-20T12:13:31.141Z,23.80
2019-05-20T12:16:03.068Z,23.70
2019-05-20T12:18:35.150Z,23.60
2019-05-20T12:21:07.105Z,23.60
2019-05-20T12:23:39.083Z,23.50
2019-05-20T12:26:11.139Z,23.50
2019-05-20T12:28:43.480Z,23.40
2019-05-20T12:31:14.874Z,23.40
2019-05-20T12:33:47.880Z,23.20
2019-05-20T12:36:20.177Z,23.20
2019-05-20T12:38:52.055Z,23.00
2019-05-20T12:41:24.356Z,22.90
2019-05-20T12:44:11.099Z,22.70
2019-05-20T12:46:30.213Z,22.60
2019-05-20T12:49:02.417Z,22.40
2019-05-20T12:51:34.391Z,22.20
2019-05-20T12:54:06.758Z,22.00
2019-05-20T12:56:38.845Z,21.90
2019-05-20T12:59:11.329Z,21.80
2019-05-20T13:01:44.391Z,21.70
2019-05-20T13:04:16.704Z,21.50
2019-05-20T13:06:48.679Z,21.40
2019-05-20T13:09:21.087Z,21.40
2019-05-20T13:11:52.848Z,21.30
2019-05-20T13:14:25.008Z,21.30
2019-05-20T13:16:57.418Z,21.30
2019-05-20T13:19:29.008Z,21.20
2019-05-20T13:22:01.185Z,21.20
2019-05-20T13:24:33.366Z,21.20
2019-05-20T13:27:05.719Z,21.20
2019-05-20T13:29:37.784Z,21.20
2019-05-20T13:32:09.964Z,21.30
2019-05-20T13:34:42.322Z,21.50
2019-05-20T13:37:15.013Z,21.60
2019-05-20T13:39:47.019Z,21.70
2019-05-20T13:42:19.143Z,21.80
2019-05-20T13:44:54.741Z,21.90
2019-05-20T13:47:27.006Z,22.00
2019-05-20T13:49:59.845Z,22.00
2019-05-20T13:52:32.245Z,22.00
2019-05-20T13:55:04.431Z,22.00
2019-05-20T13:57:36.956Z,22.00
2019-05-20T14:00:10.252Z,22.00
2019-05-20T14:02:41.834Z,22.00
2019-05-20T14:05:14.432Z,22.00
2019-05-20T14:07:46.251Z,22.10
2019-05-20T14:10:19.251Z,22.00
2019-05-20T14:12:52.458Z,22.00
2019-05-20T14:15:24.692Z,22.10
2019-05-20T14:17:55.134Z,22.20
2019-05-20T14:20:27.213Z,22.30
2019-05-20T14:22:59.162Z,22.40
2019-05-20T14:25:31.391Z,22.40
2019-05-20T14:28:03.753Z,22.60
2019-05-20T14:30:35.980Z,22.60
2019-05-20T14:33:12.237Z,22.60
2019-05-20T14:35:44.381Z,22.50
2019-05-20T14:38:16.671Z,22.40
2019-05-20T14:40:48.699Z,22.30
2019-05-20T14:43:20.501Z,22.30
2019-05-20T14:45:52.677Z,22.40
2019-05-20T14:48:25.337Z,22.50
2019-05-20T14:50:57.457Z,22.50
2019-05-20T14:53:29.874Z,22.60
2019-05-20T14:56:01.498Z,22.70
2019-05-20T14:58:33.643Z,22.80
2019-05-20T15:01:06.345Z,22.80
2019-05-20T15:03:38.614Z,22.90
2019-05-20T15:06:10.661Z,23.00
2019-05-20T15:08:43.211Z,23.10
2019-05-20T15:11:15.439Z,23.20
2019-05-20T15:13:47.334Z,23.40
2019-05-20T15:16:20.241Z,23.50
2019-05-20T15:18:52.407Z,23.50
2019-05-20T15:21:28.934Z,23.60
2019-05-20T15:23:58.737Z,23.60
2019-05-20T15:26:30.803Z,23.60
2019-05-20T15:29:04.016Z,23.70
2019-05-20T15:31:36.797Z,23.70
2019-05-20T15:34:09.237Z,23.70
2019-05-20T15:36:41.340Z,23.70
2019-05-20T15:39:13.660Z,23.80
2019-05-20T15:41:46.343Z,23.90
2019-05-20T15:44:18.639Z,24.00
2019-05-20T15:46:50.713Z,24.00
2019-05-20T15:49:22.799Z,24.00
2019-05-20T15:51:54.923Z,24.00
2019-05-20T15:54:27.260Z,23.90
2019-05-20T15:56:59.566Z,24.00
2019-05-20T15:59:44.965Z,24.00
2019-05-20T16:02:04.877Z,23.90
2019-05-20T16:04:37.254Z,23.90
2019-05-20T16:07:09.887Z,23.90
2019-05-20T16:09:42.086Z,23.90
2019-05-20T16:12:14.723Z,23.90
2019-05-20T16:14:46.792Z,23.80
2019-05-20T16:17:19.011Z,23.60
2019-05-20T16:19:51.037Z,23.40
2019-05-20T16:22:22.844Z,23.20
2019-05-20T16:24:55.023Z,22.90
2019-05-20T16:27:27.104Z,22.70
2019-05-20T16:30:06.120Z,22.40
2019-05-20T16:32:32.686Z,22.20
2019-05-20T16:35:04.949Z,21.80
2019-05-20T16:37:36.879Z,21.50
2019-05-20T16:40:09.996Z,21.20
2019-05-20T16:42:41.983Z,21.10
2019-05-20T16:45:14.526Z,21.00
2019-05-20T16:47:46.688Z,20.90
2019-05-20T16:50:18.853Z,20.80
2019-05-20T16:52:51.086Z,20.60
2019-05-20T16:55:23.480Z,20.40
2019-05-20T16:57:55.511Z,20.20
2019-05-20T17:00:31.884Z,19.90
2019-05-20T17:03:01.053Z,19.70
2019-05-20T17:05:33.301Z,19.50
2019-05-20T17:08:05.315Z,19.30
2019-05-20T17:10:37.298Z,19.10
2019-05-20T17:13:09.610Z,18.90
2019-05-20T17:15:41.847Z,18.80
2019-05-20T17:18:13.885Z,18.70
2019-05-20T17:20:46.548Z,18.60
2019-05-20T17:23:18.741Z,18.50
2019-05-20T17:25:51.112Z,18.50
2019-05-20T17:28:22.862Z,18.40
2019-05-20T17:30:55.027Z,18.40
2019-05-20T17:33:26.962Z,18.30
2019-05-20T17:36:06.696Z,18.20
2019-05-20T17:38:38.580Z,18.20
2019-05-20T17:41:11.068Z,18.10
2019-05-20T17:43:43.192Z,18.10
2019-05-20T17:46:15.684Z,18.10
2019-05-20T17:48:47.573Z,18.00
2019-05-20T17:51:19.765Z,18.00
2019-05-20T17:53:51.930Z,18.00
2019-05-20T17:56:23.983Z,18.10
2019-05-20T17:58:55.914Z,18.10
2019-05-20T18:01:27.986Z,18.10
2019-05-20T18:04:00.097Z,18.00
2019-05-20T18:06:32.263Z,18.00
2019-05-20T18:09:06.786Z,18.00
2019-05-20T18:11:39.152Z,18.00
2019-05-20T18:14:11.050Z,17.90
2019-05-20T18:16:43.354Z,17.90
2019-05-20T18:19:15.622Z,17.90
2019-05-20T18:21:47.940Z,17.90
2019-05-20T18:24:20.421Z,17.80
2019-05-20T18:26:52.398Z,17.80
2019-05-20T18:29:24.323Z,17.80
2019-05-20T18:31:56.482Z,17.80
2019-05-20T18:34:28.471Z,17.80
2019-05-20T18:37:00.469Z,17.80
2019-05-20T18:39:32.542Z,17.70
2019-05-20T18:42:04.634Z,17.70
2019-05-20T18:44:36.527Z,17.70
2019-05-20T18:47:08.353Z,17.70
2019-05-20T18:49:41.294Z,17.70
2019-05-20T18:52:13.313Z,17.70
2019-05-20T18:54:45.398Z,17.70
2019-05-20T18:57:17.806Z,17.80
2019-05-20T18:59:50.005Z,17.70
2019-05-20T19:02:21.944Z,17.70
2019-05-20T19:04:53.556Z,17.70
2019-05-20T19:07:25.489Z,17.70
2019-05-20T19:09:57.495Z,17.70
2019-05-20T19:12:29.675Z,17.70
2019-05-20T19:15:01.929Z,17.70
2019-05-20T19:17:33.929Z,17.70
2019-05-20T19:20:06.984Z,17.70
2019-05-20T19:22:39.042Z,17.70
2019-05-20T19:25:11.294Z,17.70
2019-05-20T19:27:43.700Z,17.70
2019-05-20T19:30:16.227Z,17.70
2019-05-20T19:32:48.618Z,17.70
2019-05-20T19:35:20.764Z,17.60
2019-05-20T19:37:52.795Z,17.60
2019-05-20T19:40:24.662Z,17.60
2019-05-20T19:42:56.527Z,17.60
2019-05-20T19:45:28.714Z,17.60
2019-05-20T19:48:02.132Z,17.50
2019-05-20T19:50:34.171Z,17.50
2019-05-20T19:53:06.871Z,17.50
2019-05-20T19:55:38.954Z,17.40
2019-05-20T19:58:11.151Z,17.40
2019-05-20T20:00:42.987Z,17.40
2019-05-20T20:03:15.131Z,17.30
2019-05-20T20:05:47.139Z,17.30
2019-05-20T20:08:19.487Z,17.30
2019-05-20T20:10:51.659Z,17.30
2019-05-20T20:13:23.552Z,17.30
2019-05-20T20:15:56.473Z,17.30
2019-05-20T20:18:28.293Z,17.30
2019-05-20T20:20:59.978Z,17.30
2019-05-20T20:23:31.832Z,17.20
2019-05-20T20:26:03.774Z,17.20
2019-05-20T20:28:35.508Z,17.20
2019-05-20T20:31:10.443Z,17.20
2019-05-20T20:33:40.882Z,17.10
2019-05-20T20:36:12.879Z,17.10
2019-05-20T20:38:44.910Z,17.10
2019-05-20T20:41:17.153Z,17.10
2019-05-20T20:43:49.016Z,17.00
2019-05-20T20:46:21.126Z,17.00
2019-05-20T20:48:53.417Z,17.00
2019-05-20T20:51:25.357Z,16.90
2019-05-20T20:53:57.051Z,16.90
2019-05-20T20:56:29.022Z,16.80
2019-05-20T20:59:01.407Z,16.80
2019-05-20T21:01:33.457Z,16.80
2019-05-20T21:04:05.406Z,16.80
2019-05-20T21:06:37.184Z,16.80
2019-05-20T21:09:09.179Z,16.70
2019-05-20T21:11:41.041Z,16.70
2019-05-20T21:14:13.433Z,16.70
2019-05-20T21:16:45.171Z,16.70
2019-05-20T21:19:17.224Z,16.70
2019-05-20T21:21:48.594Z,16.70
2019-05-20T21:24:20.543Z,16.70
2019-05-20T21:26:52.512Z,16.70
2019-05-20T21:29:24.362Z,16.60
2019-05-20T21:31:56.176Z,16.60
2019-05-20T21:34:27.997Z,16.60
2019-05-20T21:36:59.858Z,16.60
2019-05-20T21:39:31.792Z,16.60
2019-05-20T21:42:03.977Z,16.50
2019-05-20T21:44:35.989Z,16.60
2019-05-20T21:47:07.778Z,16.50
2019-05-20T21:49:39.692Z,16.50
2019-05-20T21:52:11.700Z,16.40
2019-05-20T21:54:43.350Z,16.40
2019-05-20T21:57:14.651Z,16.40
2019-05-20T21:59:46.761Z,16.30
2019-05-20T22:02:18.402Z,16.30
2019-05-20T22:04:50.549Z,16.30
2019-05-20T22:07:22.420Z,16.20
2019-05-20T22:09:54.378Z,16.20
2019-05-20T22:12:26.239Z,16.20
2019-05-20T22:14:57.912Z,16.10
2019-05-20T22:17:29.618Z,16.00
2019-05-20T22:20:01.310Z,16.00
2019-05-20T22:22:45.636Z,16.00
2019-05-20T22:25:17.588Z,15.90
2019-05-20T22:27:49.490Z,15.90
2019-05-20T22:30:21.287Z,15.90
2019-05-20T22:32:52.872Z,15.90
2019-05-20T22:35:24.640Z,16.00
2019-05-20T22:37:56.546Z,15.90
2019-05-20T22:40:28.282Z,16.00
2019-05-20T22:43:00.308Z,16.00
2019-05-20T22:45:32.098Z,16.00
2019-05-20T22:48:03.934Z,16.00
2019-05-20T22:50:35.988Z,15.90
2019-05-20T22:53:07.833Z,15.90
2019-05-20T22:55:39.759Z,15.90
2019-05-20T22:58:11.444Z,15.80
2019-05-20T23:00:44.340Z,15.70
2019-05-20T23:03:16.512Z,15.60
2019-05-20T23:05:48.452Z,15.60
2019-05-20T23:08:20.220Z,15.50
2019-05-20T23:10:52.228Z,15.40
2019-05-20T23:13:23.973Z,15.40
2019-05-20T23:15:55.947Z,15.30
2019-05-20T23:18:27.539Z,15.30
2019-05-20T23:20:59.576Z,15.20
2019-05-20T23:23:31.269Z,15.20
2019-05-20T23:26:03.020Z,15.20
2019-05-20T23:28:34.707Z,15.10
2019-05-20T23:31:06.868Z,15.10
2019-05-20T23:33:38.927Z,15.00
2019-05-20T23:36:10.659Z,15.00
2019-05-20T23:38:42.612Z,15.00
2019-05-20T23:41:14.314Z,14.90
2019-05-20T23:43:46.030Z,14.90
2019-05-20T23:46:17.996Z,14.80
2019-05-20T23:48:49.645Z,14.80
2019-05-20T23:51:21.412Z,14.80
2019-05-20T23:53:53.280Z,14.80
2019-05-20T23:56:25.025Z,14.70
2019-05-20T23:58:56.704Z,14.80
